Time;durP1;ratioP1;P1;durP2;ratioP2;P2;SDS_P1;SDS_P2;PMS_P1;PMS_P2;Temp;Humidity;BMP_temperature;BMP_pressure;BME280_temperature;BME280_humidity;BME280_pressure;Samples;Min_cycle;Max_cycle;Signal;HPM_P1;HPM_P2
2023/05/02 00:01:20;;;;;;;11.65;10.43;;;13.10;97.80;;;;;;5074816;28;20032;-46
2023/05/02 00:04:07;;;;;;;11.90;10.70;;;13.10;98.10;;;;;;5067341;28;20024;-46
2023/05/02 00:06:53;;;;;;;11.77;10.57;;;13.00;98.30;;;;;;5093029;28;20024;-48
2023/05/02 00:09:39;;;;;;;12.98;10.65;;;13.00;98.60;;;;;;5093488;28;20020;-46
2023/05/02 00:12:25;;;;;;;14.02;10.30;;;13.00;98.20;;;;;;5093868;28;20070;-47
2023/05/02 00:15:11;;;;;;;11.70;9.52;;;13.00;98.00;;;;;;5094552;28;20016;-46
2023/05/02 00:17:57;;;;;;;11.82;9.65;;;13.00;97.90;;;;;;5092382;28;20107;-45
2023/05/02 00:20:44;;;;;;;11.07;9.88;;;13.00;98.10;;;;;;5092118;28;20084;-48
2023/05/02 00:23:30;;;;;;;11.65;10.10;;;13.00;98.00;;;;;;5082733;28;20438;-48
2023/05/02 00:26:16;;;;;;;12.00;9.18;;;13.00;98.10;;;;;;5072422;28;20033;-47
2023/05/02 00:29:06;;;;;;;12.05;9.65;;;13.10;98.00;;;;;;5071671;28;20033;-47
2023/05/02 00:31:53;;;;;;;10.43;9.40;;;13.10;97.80;;;;;;5054119;28;20563;-47
2023/05/02 00:34:38;;;;;;;12.30;9.35;;;13.10;97.70;;;;;;5053812;28;20109;-44
2023/05/02 00:37:27;;;;;;;11.63;9.02;;;13.20;97.60;;;;;;5053301;28;20532;-47
2023/05/02 00:40:13;;;;;;;11.82;9.25;;;13.20;97.30;;;;;;5053309;28;20032;-49
2023/05/02 00:42:59;;;;;;;12.30;9.45;;;13.30;97.30;;;;;;5053114;28;20068;-47
2023/05/02 00:45:46;;;;;;;11.35;9.48;;;13.30;97.10;;;;;;5052775;28;20032;-48
2023/05/02 00:48:32;;;;;;;11.30;9.30;;;13.20;97.30;;;;;;5067718;28;20031;-46
2023/05/02 00:51:18;;;;;;;10.38;9.07;;;13.20;97.40;;;;;;5072774;28;20416;-45
2023/05/02 00:54:05;;;;;;;9.55;8.63;;;13.20;97.20;;;;;;5065758;28;20029;-46
2023/05/02 00:56:51;;;;;;;10.20;8.73;;;13.10;97.30;;;;;;5051943;28;20030;-44
2023/05/02 00:59:37;;;;;;;9.38;8.48;;;13.10;97.50;;;;;;5068155;28;20722;-45
2023/05/02 01:02:32;;;;;;;10.43;8.57;;;13.20;97.40;;;;;;5075339;28;20029;-45
2023/05/02 01:05:27;;;;;;;9.13;8.23;;;13.30;97.20;;;;;;5040297;28;20029;-46
2023/05/02 01:08:30;;;;;;;12.43;8.77;;;13.30;97.40;;;;;;5062696;28;20043;-48
2023/05/02 01:11:38;;;;;;;12.55;8.50;;;13.10;98.10;;;;;;5053370;28;20044;-49
2023/05/02 01:14:27;;;;;;;8.73;7.80;;;13.20;98.10;;;;;;5054517;28;20113;-50
2023/05/02 01:17:14;;;;;;;10.70;7.63;;;13.00;99.10;;;;;;5072423;28;20028;-48
2023/05/02 01:20:07;;;;;;;10.85;7.97;;;13.00;99.20;;;;;;5067513;28;20036;-47
2023/05/02 01:22:58;;;;;;;9.80;7.82;;;13.00;99.50;;;;;;5053027;28;20057;-49
2023/05/02 01:26:19;;;;;;;15.85;8.35;;;13.00;99.80;;;;;;5052518;28;20127;-45
2023/05/02 01:29:07;;;;;;;9.00;7.18;;;13.00;99.90;;;;;;5050989;28;20073;-47
2023/05/02 01:31:55;;;;;;;13.32;7.88;;;13.20;99.90;;;;;;5072307;28;20030;-48
2023/05/02 01:34:43;;;;;;;9.35;7.38;;;13.20;99.90;;;;;;5054540;28;20025;-45
2023/05/02 01:37:30;;;;;;;8.85;7.07;;;13.20;99.90;;;;;;5051684;28;20048;-46
2023/05/02 01:40:18;;;;;;;10.00;7.78;;;13.20;99.90;;;;;;5052792;28;20028;-45
2023/05/02 01:43:06;;;;;;;10.50;7.00;;;13.20;99.90;;;;;;5052222;28;20033;-44
2023/05/02 01:45:54;;;;;;;9.13;7.00;;;13.10;99.90;;;;;;5056726;28;20067;-50
2023/05/02 01:48:45;;;;;;;10.13;6.93;;;13.20;99.90;;;;;;5071892;28;20039;-46
2023/05/02 01:51:34;;;;;;;11.50;7.00;;;13.10;99.90;;;;;;5063330;28;20033;-46
2023/05/02 01:54:23;;;;;;;8.73;6.88;;;13.20;99.90;;;;;;5061472;28;20367;-47
2023/05/02 01:57:11;;;;;;;7.72;6.88;;;13.20;99.90;;;;;;5051704;28;20090;-45
2023/05/02 01:59:58;;;;;;;11.23;6.88;;;13.10;99.90;;;;;;5052324;28;20036;-47
2023/05/02 02:02:45;;;;;;;9.05;7.07;;;13.10;99.90;;;;;;5051477;28;20059;-45
2023/05/02 02:05:33;;;;;;;8.82;6.70;;;13.20;99.90;;;;;;5069559;28;20063;-47
2023/05/02 02:08:19;;;;;;;9.77;6.95;;;13.20;99.90;;;;;;5070851;28;20589;-45
2023/05/02 02:11:10;;;;;;;8.18;6.78;;;13.20;99.90;;;;;;5051876;28;20025;-45
2023/05/02 02:14:11;;;;;;;9.25;7.25;;;13.10;99.90;;;;;;5056033;28;20104;-47
2023/05/02 02:17:01;;;;;;;7.95;7.15;;;13.20;99.90;;;;;;5071866;28;20025;-46
2023/05/02 02:19:49;;;;;;;9.38;7.03;;;13.10;99.90;;;;;;5059505;28;20440;-47
2023/05/02 02:22:38;;;;;;;8.80;7.15;;;13.10;99.90;;;;;;5055237;28;20037;-45
2023/05/02 02:25:25;;;;;;;9.55;6.63;;;13.10;99.90;;;;;;5069913;28;20024;-46
2023/05/02 02:28:12;;;;;;;8.98;6.45;;;13.20;99.90;;;;;;5071353;28;20544;-50
2023/05/02 02:30:59;;;;;;;8.13;6.05;;;13.10;99.90;;;;;;5071179;28;20441;-47
2023/05/02 02:33:45;;;;;;;7.60;6.45;;;13.20;99.90;;;;;;5068662;28;20165;-45
2023/05/02 02:36:55;;;;;;;7.68;5.95;;;13.10;99.90;;;;;;5069793;28;20036;-47
2023/05/02 02:40:10;;;;;;;7.38;5.55;;;13.20;99.90;;;;;;5070538;28;20134;-44
2023/05/02 02:43:11;;;;;;;12.75;6.47;;;13.20;99.90;;;;;;5057637;28;20036;-48
2023/05/02 02:46:28;;;;;;;9.35;5.70;;;13.00;99.90;;;;;;5051293;28;20036;-46
2023/05/02 02:49:41;;;;;;;10.30;6.05;;;12.90;99.90;;;;;;5041591;28;20049;-45
2023/05/02 02:52:37;;;;;;;9.20;5.80;;;13.00;99.90;;;;;;5059523;28;20033;-45
2023/05/02 02:55:46;;;;;;;8.40;5.80;;;12.90;99.90;;;;;;5070357;28;20024;-45
2023/05/02 02:58:53;;;;;;;9.93;5.78;;;12.80;99.90;;;;;;5052010;28;20025;-47
2023/05/02 03:01:42;;;;;;;5.97;5.10;;;13.00;99.90;;;;;;5061402;28;20060;-45
2023/05/02 03:04:31;;;;;;;9.07;5.57;;;13.00;99.90;;;;;;5071335;28;20496;-45
2023/05/02 03:07:17;;;;;;;6.70;5.30;;;13.10;99.90;;;;;;5054690;28;20640;-46
2023/05/02 03:10:04;;;;;;;7.93;5.22;;;13.00;99.90;;;;;;5057566;28;20052;-47
2023/05/02 03:12:54;;;;;;;13.77;5.32;;;13.00;99.90;;;;;;5070537;28;20029;-47
2023/05/02 03:15:57;;;;;;;9.27;5.60;;;13.10;99.90;;;;;;5060354;28;20029;-46
2023/05/02 03:18:43;;;;;;;6.95;5.63;;;13.00;99.90;;;;;;5068282;28;20443;-46
2023/05/02 03:21:32;;;;;;;8.35;6.07;;;13.00;99.90;;;;;;5074788;28;20029;-47
2023/05/02 03:24:18;;;;;;;8.25;5.75;;;12.80;99.90;;;;;;5067005;28;20512;-47
2023/05/02 03:27:05;;;;;;;8.45;6.35;;;12.90;99.90;;;;;;5069057;28;20036;-47
2023/05/02 03:29:51;;;;;;;9.27;5.72;;;12.90;99.90;;;;;;5062243;28;20033;-44
2023/05/02 03:32:36;;;;;;;6.63;5.40;;;13.00;99.90;;;;;;5064394;28;20086;-44
2023/05/02 03:35:22;;;;;;;10.68;6.68;;;12.90;99.90;;;;;;5061069;28;20025;-45
2023/05/02 03:38:08;;;;;;;5.85;4.95;;;12.80;99.90;;;;;;5073577;28;20062;-46
2023/05/02 03:40:57;;;;;;;8.85;6.15;;;12.80;99.90;;;;;;5079331;28;20446;-50
2023/05/02 03:43:43;;;;;;;7.07;5.60;;;12.70;99.90;;;;;;5078831;28;20024;-47
2023/05/02 03:46:29;;;;;;;8.88;5.65;;;12.60;99.90;;;;;;5091542;28;20032;-47
2023/05/02 03:49:15;;;;;;;7.25;5.47;;;12.70;99.90;;;;;;5074125;28;20052;-45
2023/05/02 03:52:01;;;;;;;7.95;6.07;;;12.60;99.90;;;;;;5082028;28;20025;-47
2023/05/02 03:54:46;;;;;;;8.20;6.20;;;12.70;99.90;;;;;;5054330;28;20533;-45
2023/05/02 03:57:32;;;;;;;11.13;5.95;;;12.70;99.90;;;;;;5062115;28;20040;-45
2023/05/02 04:00:19;;;;;;;9.52;5.88;;;12.60;99.90;;;;;;5073709;28;20031;-45
2023/05/02 04:03:04;;;;;;;7.75;6.10;;;12.70;99.90;;;;;;5062364;28;20044;-47
2023/05/02 04:05:50;;;;;;;7.07;5.65;;;12.50;99.90;;;;;;5080653;28;20070;-48
2023/05/02 04:08:36;;;;;;;7.50;6.13;;;12.40;99.90;;;;;;5072156;28;20059;-49
2023/05/02 04:11:25;;;;;;;6.68;5.97;;;12.40;99.90;;;;;;5066832;28;20036;-47
2023/05/02 04:14:10;;;;;;;8.82;6.68;;;12.40;99.90;;;;;;5055245;28;20021;-49
2023/05/02 04:16:56;;;;;;;8.15;6.00;;;12.50;99.90;;;;;;5065104;28;20161;-47
2023/05/02 04:19:42;;;;;;;8.90;6.38;;;12.60;99.90;;;;;;5074039;28;20116;-49
2023/05/02 04:22:28;;;;;;;6.85;6.15;;;12.50;99.90;;;;;;5057146;28;20507;-49
2023/05/02 04:25:14;;;;;;;10.18;7.22;;;12.70;99.90;;;;;;5052582;28;20512;-47
2023/05/02 04:28:00;;;;;;;10.90;6.65;;;12.50;99.90;;;;;;5072925;28;20039;-46
2023/05/02 04:30:48;;;;;;;7.82;6.88;;;12.50;99.90;;;;;;5071501;28;20557;-47
2023/05/02 04:33:34;;;;;;;7.70;6.78;;;12.40;99.90;;;;;;5053310;28;20074;-47
2023/05/02 04:36:19;;;;;;;8.65;7.00;;;12.40;99.90;;;;;;5057526;28;20032;-48
2023/05/02 04:39:06;;;;;;;7.30;6.60;;;12.60;99.90;;;;;;5073938;28;20028;-47
2023/05/02 04:41:52;;;;;;;6.85;5.93;;;12.50;99.90;;;;;;5075624;28;20032;-49
2023/05/02 04:44:38;;;;;;;8.20;6.38;;;12.60;99.90;;;;;;5074446;28;20033;-49
2023/05/02 04:47:24;;;;;;;9.88;6.55;;;12.60;99.90;;;;;;5072827;28;20032;-45
2023/05/02 04:50:10;;;;;;;10.95;6.70;;;12.50;99.90;;;;;;5071178;28;20021;-49
2023/05/02 04:52:57;;;;;;;7.75;6.30;;;12.60;99.90;;;;;;5053127;28;20516;-48
2023/05/02 04:55:42;;;;;;;9.60;6.72;;;12.50;99.90;;;;;;5059346;28;20028;-49
2023/05/02 04:58:28;;;;;;;8.68;7.22;;;12.40;99.90;;;;;;5077500;28;20025;-52
2023/05/02 05:01:15;;;;;;;9.07;7.03;;;12.40;99.90;;;;;;5081434;28;20064;-47
2023/05/02 05:04:01;;;;;;;8.25;6.25;;;12.50;99.90;;;;;;5084056;28;20039;-46
2023/05/02 05:06:48;;;;;;;9.40;6.60;;;12.40;99.90;;;;;;5073905;28;20032;-45
2023/05/02 05:09:36;;;;;;;7.47;6.60;;;12.40;99.90;;;;;;5076727;28;20029;-46
2023/05/02 05:12:22;;;;;;;10.02;7.13;;;12.30;99.90;;;;;;5085747;28;20024;-46
2023/05/02 05:15:08;;;;;;;10.10;6.82;;;12.30;99.90;;;;;;5076795;28;20036;-46
2023/05/02 05:17:54;;;;;;;9.90;7.72;;;12.20;99.90;;;;;;5083740;28;20040;-44
2023/05/02 05:20:40;;;;;;;8.70;7.22;;;12.40;99.90;;;;;;5079822;28;20035;-47
2023/05/02 05:23:27;;;;;;;11.55;7.60;;;12.40;99.90;;;;;;5059958;28;20029;-45
2023/05/02 05:26:15;;;;;;;9.43;7.30;;;12.30;99.90;;;;;;5069323;28;20032;-45
2023/05/02 05:29:01;;;;;;;9.27;7.53;;;12.40;99.90;;;;;;5071016;28;20063;-49
2023/05/02 05:31:47;;;;;;;12.52;7.20;;;12.40;99.90;;;;;;5068762;28;20026;-50
2023/05/02 05:34:33;;;;;;;9.20;7.40;;;12.50;99.90;;;;;;5069093;28;20090;-47
2023/05/02 05:37:20;;;;;;;8.85;6.90;;;12.50;99.90;;;;;;5069562;28;20057;-46
2023/05/02 05:40:09;;;;;;;9.32;7.40;;;12.60;99.90;;;;;;5072084;28;20025;-49
2023/05/02 05:42:55;;;;;;;7.97;6.75;;;12.80;99.90;;;;;;5068317;28;20037;-46
2023/05/02 05:45:41;;;;;;;8.73;7.22;;;12.70;99.90;;;;;;5070761;28;20081;-49
2023/05/02 05:48:27;;;;;;;9.88;7.53;;;12.80;99.90;;;;;;5070983;28;20032;-47
2023/05/02 05:51:13;;;;;;;9.10;7.30;;;12.70;99.90;;;;;;5069761;28;20100;-51
2023/05/02 05:53:58;;;;;;;8.20;7.38;;;12.80;99.90;;;;;;5070989;28;20016;-47
2023/05/02 05:56:45;;;;;;;11.45;7.72;;;12.60;99.90;;;;;;5070453;28;20032;-52
2023/05/02 05:59:35;;;;;;;10.65;7.30;;;12.60;99.90;;;;;;5070645;28;20034;-49
2023/05/02 06:02:21;;;;;;;8.32;6.70;;;12.70;99.90;;;;;;5070945;28;20024;-49
2023/05/02 06:05:07;;;;;;;7.93;7.10;;;12.70;99.90;;;;;;5070266;28;20405;-44
2023/05/02 06:07:53;;;;;;;11.00;6.80;;;12.70;99.90;;;;;;5064733;28;20568;-46
2023/05/02 06:10:40;;;;;;;9.82;7.47;;;12.80;99.90;;;;;;5069536;28;20029;-43
2023/05/02 06:13:26;;;;;;;10.68;7.35;;;12.70;99.90;;;;;;5069727;28;20040;-44
2023/05/02 06:16:12;;;;;;;9.35;7.22;;;12.70;99.90;;;;;;5068583;28;20035;-45
2023/05/02 06:18:58;;;;;;;10.63;8.27;;;12.80;99.90;;;;;;5079176;28;20089;-42
2023/05/02 06:21:44;;;;;;;10.93;8.60;;;12.90;99.90;;;;;;5055374;28;20032;-49
2023/05/02 06:24:30;;;;;;;14.80;9.77;;;12.70;99.90;;;;;;5087611;28;20496;-45
2023/05/02 06:27:16;;;;;;;13.50;10.00;;;12.60;99.90;;;;;;5070845;28;20036;-52
2023/05/02 06:30:02;;;;;;;15.52;10.55;;;12.60;99.90;;;;;;5068131;28;20497;-48
2023/05/02 06:32:48;;;;;;;14.30;10.55;;;12.70;99.90;;;;;;5051644;28;20509;-47
2023/05/02 06:35:34;;;;;;;16.67;10.65;;;12.70;99.90;;;;;;5051964;28;20064;-52
2023/05/02 06:38:20;;;;;;;14.18;10.68;;;12.60;99.90;;;;;;5052285;28;20102;-49
2023/05/02 06:41:11;;;;;;;15.43;11.63;;;12.50;99.90;;;;;;5051967;28;20108;-47
2023/05/02 06:43:57;;;;;;;16.50;10.43;;;12.70;99.90;;;;;;5065421;28;20033;-45
2023/05/02 06:46:43;;;;;;;19.30;13.63;;;12.70;99.90;;;;;;5069643;28;20033;-49
2023/05/02 06:49:29;;;;;;;18.23;13.25;;;12.80;99.90;;;;;;5068857;28;20400;-44
2023/05/02 06:52:15;;;;;;;18.30;14.43;;;12.70;99.90;;;;;;5069298;28;20386;-44
2023/05/02 06:55:01;;;;;;;21.20;14.15;;;12.70;99.90;;;;;;5074784;28;20051;-44
2023/05/02 06:57:50;;;;;;;20.23;15.07;;;12.70;99.90;;;;;;5071623;28;20037;-46
2023/05/02 07:00:36;;;;;;;18.95;14.63;;;12.60;99.90;;;;;;5071165;28;20035;-45
2023/05/02 07:03:22;;;;;;;19.25;14.88;;;12.50;99.90;;;;;;5057216;28;20029;-46
2023/05/02 07:06:08;;;;;;;22.23;19.60;;;12.60;99.90;;;;;;5073868;28;20112;-53
2023/05/02 07:08:54;;;;;;;26.77;21.15;;;12.30;99.90;;;;;;5071296;28;20096;-43
2023/05/02 07:11:40;;;;;;;29.80;22.33;;;12.20;99.90;;;;;;5071873;28;20052;-44
2023/05/02 07:14:26;;;;;;;28.90;23.10;;;12.00;99.90;;;;;;5068615;28;20025;-44
2023/05/02 07:17:12;;;;;;;30.35;23.17;;;11.90;99.90;;;;;;5059375;28;20442;-48
2023/05/02 07:19:58;;;;;;;31.13;23.35;;;11.80;99.90;;;;;;5058021;28;20028;-44
2023/05/02 07:22:44;;;;;;;32.67;22.65;;;11.90;99.90;;;;;;5074092;28;20028;-46
2023/05/02 07:25:30;;;;;;;30.83;23.80;;;11.90;99.90;;;;;;5071674;28;20060;-48
2023/05/02 07:28:16;;;;;;;33.45;23.90;;;11.90;99.90;;;;;;5080226;28;20021;-47
2023/05/02 07:31:02;;;;;;;29.60;22.88;;;11.90;99.90;;;;;;5074341;28;20477;-46
2023/05/02 07:33:48;;;;;;;29.90;23.40;;;12.00;99.90;;;;;;5073065;28;20033;-47
2023/05/02 07:36:34;;;;;;;31.63;23.83;;;12.10;99.90;;;;;;5072423;28;20032;-45
2023/05/02 07:39:20;;;;;;;32.28;23.52;;;12.30;99.90;;;;;;5059605;28;20029;-45
2023/05/02 07:42:06;;;;;;;28.50;22.55;;;12.40;99.90;;;;;;5065057;28;20024;-47
2023/05/02 07:44:52;;;;;;;30.55;23.65;;;12.50;99.90;;;;;;5069466;28;20040;-46
2023/05/02 07:47:37;;;;;;;28.25;21.85;;;12.60;99.90;;;;;;5069132;28;20028;-51
2023/05/02 07:50:23;;;;;;;30.85;24.23;;;12.70;99.90;;;;;;5072043;28;20021;-46
2023/05/02 07:53:10;;;;;;;29.60;22.90;;;12.80;99.90;;;;;;5070686;28;20102;-44
2023/05/02 07:55:56;;;;;;;26.55;22.23;;;12.80;99.90;;;;;;5066060;28;20413;-47
2023/05/02 07:58:42;;;;;;;29.67;23.27;;;12.60;99.90;;;;;;5070208;28;20025;-50
2023/05/02 08:01:28;;;;;;;27.10;21.30;;;12.70;99.90;;;;;;5070475;28;20051;-49
2023/05/02 08:04:14;;;;;;;29.85;22.63;;;12.90;99.90;;;;;;5072755;28;20039;-45
2023/05/02 08:07:00;;;;;;;26.15;20.98;;;13.10;99.90;;;;;;5070541;28;20117;-49
2023/05/02 08:09:47;;;;;;;31.70;22.40;;;13.40;99.90;;;;;;5070213;28;20043;-49
2023/05/02 08:12:39;;;;;;;27.55;21.80;;;13.70;99.90;;;;;;5075711;28;20029;-47
2023/05/02 08:15:25;;;;;;;27.73;21.95;;;13.90;99.90;;;;;;5055059;28;20117;-44
2023/05/02 08:18:11;;;;;;;28.27;20.88;;;13.90;99.90;;;;;;5060132;28;20020;-44
2023/05/02 08:20:57;;;;;;;27.67;21.55;;;13.90;99.90;;;;;;5073055;28;20016;-46
2023/05/02 08:23:45;;;;;;;29.95;21.50;;;13.50;99.90;;;;;;5073922;28;20082;-44
2023/05/02 08:26:31;;;;;;;29.05;22.00;;;13.50;99.90;;;;;;5053368;28;20044;-43
2023/05/02 08:29:19;;;;;;;31.42;22.63;;;13.20;99.90;;;;;;5054599;28;20068;-46
2023/05/02 08:32:05;;;;;;;29.92;22.58;;;13.30;99.90;;;;;;5060295;28;20698;-43
2023/05/02 08:34:55;;;;;;;28.98;22.35;;;13.30;99.90;;;;;;5074064;28;20394;-44
2023/05/02 08:37:41;;;;;;;27.35;21.65;;;13.30;99.90;;;;;;5072839;28;20032;-44
2023/05/02 08:40:27;;;;;;;28.48;22.65;;;13.40;99.90;;;;;;5073528;28;20032;-42
2023/05/02 08:43:15;;;;;;;26.45;21.20;;;13.50;99.90;;;;;;5073267;28;20400;-44
2023/05/02 08:46:06;;;;;;;27.52;21.00;;;13.40;99.90;;;;;;5071683;28;20481;-51
2023/05/02 08:48:53;;;;;;;27.30;22.13;;;13.50;99.90;;;;;;5072243;28;20031;-46
2023/05/02 08:51:39;;;;;;;28.92;21.48;;;13.30;99.90;;;;;;5072563;28;20463;-45
2023/05/02 08:54:26;;;;;;;27.90;21.63;;;13.30;99.90;;;;;;5057514;28;20455;-46
2023/05/02 08:57:12;;;;;;;27.00;20.15;;;13.60;99.90;;;;;;5072002;28;20024;-46
2023/05/02 08:59:58;;;;;;;28.58;21.17;;;13.70;99.90;;;;;;5072810;28;20029;-49
2023/05/02 09:02:59;;;;;;;26.92;20.45;;;13.70;99.90;;;;;;5071745;28;20025;-46
2023/05/02 09:05:51;;;;;;;24.67;19.27;;;13.70;99.90;;;;;;5071613;28;20029;-43
2023/05/02 09:08:39;;;;;;;25.95;19.85;;;13.60;99.90;;;;;;5072792;28;20021;-45
2023/05/02 09:11:25;;;;;;;24.95;20.02;;;13.60;99.90;;;;;;5069241;28;20025;-44
2023/05/02 09:14:15;;;;;;;23.48;19.55;;;13.70;99.90;;;;;;5069553;28;20032;-43
2023/05/02 09:17:01;;;;;;;26.88;19.77;;;13.80;99.90;;;;;;5061983;28;20382;-46
2023/05/02 09:19:59;;;;;;;23.73;19.20;;;13.90;99.90;;;;;;5071403;28;20470;-44
2023/05/02 09:22:49;;;;;;;23.13;18.52;;;14.20;99.90;;;;;;5084417;28;20412;-43
2023/05/02 09:25:37;;;;;;;24.60;19.13;;;14.40;99.90;;;;;;5071291;28;20040;-44
2023/05/02 09:28:41;;;;;;;26.55;19.60;;;14.40;99.90;;;;;;5051894;28;20030;-50
2023/05/02 09:31:33;;;;;;;23.70;18.55;;;14.50;99.90;;;;;;5049401;28;20537;-46
2023/05/02 09:34:19;;;;;;;25.48;17.90;;;14.70;99.90;;;;;;5075594;28;20063;-44
2023/05/02 09:37:05;;;;;;;21.70;18.25;;;14.80;99.90;;;;;;5082005;28;20044;-47
2023/05/02 09:40:05;;;;;;;21.33;17.30;;;14.80;99.90;;;;;;5051494;28;20025;-44
2023/05/02 09:42:51;;;;;;;24.17;18.13;;;14.70;99.90;;;;;;5070168;28;20032;-49
2023/05/02 09:45:37;;;;;;;23.10;16.90;;;14.70;99.90;;;;;;5057571;28;20021;-46
2023/05/02 09:48:25;;;;;;;20.38;17.25;;;14.60;99.90;;;;;;5090896;28;20025;-46
2023/05/02 09:51:17;;;;;;;20.40;16.25;;;14.60;99.90;;;;;;5092910;28;20028;-44
2023/05/02 09:54:03;;;;;;;22.88;17.02;;;14.70;99.90;;;;;;5092446;28;20031;-46
2023/05/02 09:56:56;;;;;;;21.90;16.92;;;14.70;99.90;;;;;;5075414;28;20044;-47
2023/05/02 09:59:55;;;;;;;20.52;16.50;;;14.50;99.90;;;;;;5082300;28;20400;-49
2023/05/02 10:02:42;;;;;;;19.70;16.77;;;14.50;99.90;;;;;;5078434;28;20106;-45
2023/05/02 10:05:28;;;;;;;22.30;16.85;;;14.60;99.90;;;;;;5080180;28;20032;-49
2023/05/02 10:08:17;;;;;;;17.88;15.60;;;14.50;99.90;;;;;;5089962;28;20016;-47
2023/05/02 10:11:07;;;;;;;20.88;16.30;;;14.60;99.90;;;;;;5051412;28;20082;-45
2023/05/02 10:13:53;;;;;;;17.30;15.30;;;14.80;99.90;;;;;;5064760;28;20141;-46
2023/05/02 10:16:53;;;;;;;17.15;15.35;;;14.80;99.90;;;;;;5077228;28;20071;-48
2023/05/02 10:19:58;;;;;;;16.40;14.15;;;14.90;99.90;;;;;;5091206;28;20077;-47
2023/05/02 10:22:46;;;;;;;20.08;15.07;;;15.00;99.90;;;;;;5088905;28;20119;-43
2023/05/02 10:25:32;;;;;;;18.05;14.52;;;14.90;99.90;;;;;;5071414;28;20037;-46
2023/05/02 10:28:19;;;;;;;18.75;15.05;;;15.00;99.90;;;;;;5072300;28;20151;-46
2023/05/02 10:31:08;;;;;;;15.77;13.48;;;14.90;99.90;;;;;;5070180;28;20063;-45
2023/05/02 10:33:55;;;;;;;15.82;13.65;;;14.70;99.90;;;;;;5090019;28;20527;-44
2023/05/02 10:36:41;;;;;;;11.43;10.25;;;14.50;99.90;;;;;;5091085;28;20028;-43
2023/05/02 10:39:29;;;;;;;13.90;10.93;;;14.40;99.90;;;;;;5052076;28;20045;-45
2023/05/02 10:42:17;;;;;;;11.57;9.68;;;13.90;99.90;;;;;;5049031;28;20032;-49
2023/05/02 10:45:03;;;;;;;14.90;11.55;;;13.70;99.90;;;;;;5089745;28;20073;-49
2023/05/02 10:47:49;;;;;;;13.23;11.02;;;13.30;99.90;;;;;;5091686;28;20028;-48
2023/05/02 10:50:46;;;;;;;13.35;11.70;;;12.90;99.90;;;;;;5090737;28;20029;-45
2023/05/02 10:53:35;;;;;;;15.77;12.38;;;12.80;99.90;;;;;;5090202;28;20028;-47
2023/05/02 10:56:21;;;;;;;17.20;12.57;;;12.80;99.90;;;;;;5083443;28;20048;-49
2023/05/02 10:59:31;;;;;;;15.02;11.43;;;12.60;99.90;;;;;;5071177;28;20025;-51
2023/05/02 11:02:24;;;;;;;13.52;11.75;;;12.50;99.90;;;;;;5055271;28;20017;-53
2023/05/02 11:05:09;;;;;;;14.65;12.45;;;12.30;99.90;;;;;;5071194;28;20174;-52
2023/05/02 11:08:14;;;;;;;16.27;12.13;;;12.20;99.90;;;;;;5070647;28;20031;-51
2023/05/02 11:11:40;;;;;;;15.70;12.35;;;12.30;99.90;;;;;;5072474;28;20037;-54
2023/05/02 11:14:32;;;;;;;13.60;12.13;;;12.30;99.90;;;;;;5089493;28;20016;-53
2023/05/02 11:17:18;;;;;;;15.60;11.88;;;12.40;99.90;;;;;;5090592;28;20020;-52
2023/05/02 11:20:04;;;;;;;14.10;11.13;;;12.50;99.90;;;;;;5085152;28;20025;-55
2023/05/02 11:22:51;;;;;;;16.95;10.40;;;12.60;99.90;;;;;;5086862;28;20515;-53
2023/05/02 11:25:42;;;;;;;9.68;8.68;;;12.60;99.90;;;;;;5085563;28;20036;-53
2023/05/02 11:28:49;;;;;;;13.55;9.32;;;12.80;99.90;;;;;;5082406;28;20038;-51
2023/05/02 11:31:35;;;;;;;8.55;7.68;;;12.80;99.90;;;;;;5089487;28;20020;-48
2023/05/02 11:34:21;;;;;;;10.40;8.27;;;12.80;99.90;;;;;;5089697;28;20016;-50
2023/05/02 11:37:11;;;;;;;9.63;7.82;;;12.70;99.90;;;;;;5074762;28;20032;-53
2023/05/02 11:40:12;;;;;;;8.90;7.53;;;13.00;99.90;;;;;;5070763;28;20501;-51
2023/05/02 11:43:00;;;;;;;10.18;8.27;;;12.80;99.90;;;;;;5075692;28;20040;-48
2023/05/02 11:45:46;;;;;;;8.90;8.00;;;13.20;99.90;;;;;;5074072;28;20033;-52
2023/05/02 11:48:32;;;;;;;9.48;8.18;;;13.30;99.90;;;;;;5080411;28;20103;-53
2023/05/02 11:51:22;;;;;;;10.23;8.93;;;13.20;99.90;;;;;;5081377;28;20492;-54
2023/05/02 11:54:09;;;;;;;9.48;8.48;;;13.50;99.90;;;;;;5081568;28;20404;-52
2023/05/02 11:56:55;;;;;;;8.27;7.35;;;13.60;99.90;;;;;;5093693;28;20028;-55
2023/05/02 11:59:54;;;;;;;8.73;7.82;;;13.50;99.90;;;;;;5077126;28;20035;-51
2023/05/02 12:02:46;;;;;;;7.95;6.57;;;13.60;99.90;;;;;;5080116;28;20562;-52
2023/05/02 12:05:32;;;;;;;8.43;7.40;;;13.60;99.90;;;;;;5094049;28;20427;-52
2023/05/02 12:08:23;;;;;;;8.68;7.05;;;13.40;99.90;;;;;;5093402;28;20093;-52
2023/05/02 12:11:12;;;;;;;7.80;7.00;;;13.20;99.90;;;;;;5094982;28;20032;-55
2023/05/02 12:13:58;;;;;;;8.82;7.07;;;13.10;99.90;;;;;;5093658;28;20020;-55
2023/05/02 12:16:44;;;;;;;8.75;6.78;;;13.10;99.90;;;;;;5078934;28;20024;-54
2023/05/02 12:19:30;;;;;;;8.68;5.97;;;13.30;99.90;;;;;;5093440;28;20115;-53
2023/05/02 12:22:17;;;;;;;7.47;5.80;;;13.30;99.90;;;;;;5092657;28;20508;-53
2023/05/02 12:25:04;;;;;;;7.35;5.50;;;13.50;99.90;;;;;;5094133;28;20050;-49
2023/05/02 12:28:02;;;;;;;9.93;5.32;;;13.70;99.90;;;;;;5094177;28;20029;-50
2023/05/02 12:30:50;;;;;;;8.15;5.65;;;13.60;99.90;;;;;;5093662;28;20519;-48
2023/05/02 12:33:42;;;;;;;12.15;6.32;;;13.50;99.90;;;;;;5094405;28;20120;-51
2023/05/02 12:36:28;;;;;;;12.23;7.07;;;13.20;99.90;;;;;;5092883;28;20561;-47
2023/05/02 12:39:15;;;;;;;13.00;7.45;;;12.90;99.90;;;;;;5093216;28;20044;-52
2023/05/02 12:42:11;;;;;;;13.80;8.60;;;12.80;99.90;;;;;;5094475;28;20051;-49
2023/05/02 12:44:57;;;;;;;13.75;8.75;;;12.80;99.90;;;;;;5078008;28;20073;-54
2023/05/02 12:47:45;;;;;;;15.30;8.57;;;13.00;99.90;;;;;;5092848;28;20024;-53
2023/05/02 12:50:37;;;;;;;14.80;8.75;;;12.80;99.90;;;;;;5093046;28;20034;-50
2023/05/02 12:53:44;;;;;;;15.40;9.02;;;12.80;99.90;;;;;;5071779;28;20463;-53
2023/05/02 12:56:38;;;;;;;17.40;11.43;;;12.60;99.90;;;;;;5074070;28;20060;-51
2023/05/02 12:59:26;;;;;;;18.63;11.60;;;12.70;99.90;;;;;;5072753;28;20060;-51
2023/05/02 13:02:12;;;;;;;18.50;13.30;;;12.70;99.90;;;;;;5070743;28;20477;-53
2023/05/02 13:04:58;;;;;;;16.65;11.98;;;12.80;99.90;;;;;;5059009;28;20025;-56
2023/05/02 13:07:44;;;;;;;19.27;12.13;;;13.10;99.90;;;;;;5071975;28;20576;-50
2023/05/02 13:10:30;;;;;;;23.23;12.75;;;13.50;99.90;;;;;;5051567;28;20111;-51
2023/05/02 13:13:16;;;;;;;16.90;11.95;;;13.30;99.90;;;;;;5053412;28;20516;-50
2023/05/02 13:16:02;;;;;;;16.48;10.68;;;13.20;99.90;;;;;;5053181;28;20056;-51
2023/05/02 13:18:48;;;;;;;15.93;10.77;;;13.40;99.90;;;;;;5052758;28;20035;-53
2023/05/02 13:21:34;;;;;;;19.38;11.35;;;13.30;99.90;;;;;;5053287;28;20029;-50
2023/05/02 13:24:20;;;;;;;20.67;11.05;;;13.30;99.90;;;;;;5052020;28;20117;-53
2023/05/02 13:27:06;;;;;;;18.02;10.60;;;13.10;99.90;;;;;;5070125;28;20035;-50
2023/05/02 13:29:52;;;;;;;17.30;9.40;;;13.10;99.90;;;;;;5071533;28;20071;-54
2023/05/02 13:32:38;;;;;;;14.43;9.20;;;12.90;99.90;;;;;;5073627;28;20048;-53
2023/05/02 13:35:24;;;;;;;18.95;8.45;;;13.00;99.90;;;;;;5073735;28;20021;-48
2023/05/02 13:38:10;;;;;;;14.95;8.63;;;13.10;99.90;;;;;;5071633;28;20032;-50
2023/05/02 13:40:56;;;;;;;14.43;8.68;;;13.10;99.90;;;;;;5073473;28;20083;-48
2023/05/02 13:43:42;;;;;;;15.43;9.50;;;13.20;99.90;;;;;;5073381;28;20047;-50
2023/05/02 13:46:28;;;;;;;17.15;8.05;;;13.10;99.90;;;;;;5072991;28;20064;-47
2023/05/02 13:49:14;;;;;;;16.00;8.05;;;13.00;99.90;;;;;;5073589;28;20044;-53
2023/05/02 13:52:00;;;;;;;12.82;8.30;;;13.00;99.90;;;;;;5073248;28;20443;-50
2023/05/02 13:54:46;;;;;;;16.35;7.32;;;12.90;99.90;;;;;;5071781;28;20504;-54
2023/05/02 13:57:31;;;;;;;12.02;7.88;;;12.80;99.90;;;;;;5071763;28;20035;-55
2023/05/02 14:00:17;;;;;;;18.73;8.52;;;12.90;99.90;;;;;;5083105;28;20028;-51
2023/05/02 14:03:03;;;;;;;16.20;8.23;;;12.80;99.90;;;;;;5090722;28;20496;-53
2023/05/02 14:05:49;;;;;;;14.95;7.13;;;12.90;99.90;;;;;;5090860;28;20028;-49
2023/05/02 14:08:35;;;;;;;17.25;8.35;;;13.00;99.90;;;;;;5091281;28;20077;-52
2023/05/02 14:11:21;;;;;;;13.30;7.60;;;13.10;99.90;;;;;;5091469;28;20020;-48
2023/05/02 14:14:11;;;;;;;16.02;8.75;;;12.90;99.90;;;;;;5091249;28;20491;-50
2023/05/02 14:16:57;;;;;;;16.95;8.10;;;13.00;99.90;;;;;;5090795;28;20444;-49
2023/05/02 14:19:43;;;;;;;15.10;7.90;;;13.10;99.90;;;;;;5090913;28;20578;-56
2023/05/02 14:22:28;;;;;;;22.55;8.73;;;13.20;99.90;;;;;;5090618;28;20507;-46
2023/05/02 14:25:15;;;;;;;15.55;8.23;;;13.40;99.40;;;;;;5091682;28;20036;-44